sensor_id;sensor_type;location;lat;lon;timestamp;P1;durP1;ratioP1;P2;durP2;ratioP2
215;SDS011;64590;48.81286795;9.14184224;2023-02-22T00:00:09;19.70;;;9.10;;
215;SDS011;64590;48.81286795;9.14184224;2023-02-22T00:02:47;19.90;;;9.80;;
215;SDS011;64590;48.81286795;9.14184224;2023-02-22T00:05:15;23.83;;;10.32;;
215;SDS011;64590;48.81286795;9.14184224;2023-02-22T00:07:44;18.83;;;9.90;;
215;SDS011;64590;48.81286795;9.14184224;2023-02-22T00:10:13;20.03;;;9.13;;
215;SDS011;64590;48.81286795;9.14184224;2023-02-22T00:12:45;21.57;;;9.20;;
215;SDS011;64590;48.81286795;9.14184224;2023-02-22T00:15:12;18.93;;;9.13;;
215;SDS011;64590;48.81286795;9.14184224;2023-02-22T00:17:39;27.33;;;9.63;;
215;SDS011;64590;48.81286795;9.14184224;2023-02-22T00:20:06;19.20;;;10.10;;
215;SDS011;64590;48.81286795;9.14184224;2023-02-22T00:22:38;17.47;;;8.83;;
215;SDS011;64590;48.81286795;9.14184224;2023-02-22T00:25:05;19.30;;;9.67;;
215;SDS011;64590;48.81286795;9.14184224;2023-02-22T00:27:34;18.17;;;9.60;;
215;SDS011;64590;48.81286795;9.14184224;2023-02-22T00:30:00;20.90;;;9.40;;
215;SDS011;64590;48.81286795;9.14184224;2023-02-22T00:32:27;19.40;;;9.43;;
215;SDS011;64590;48.81286795;9.14184224;2023-02-22T00:34:53;19.87;;;9.50;;
215;SDS011;64590;48.81286795;9.14184224;2023-02-22T00:37:23;19.35;;;9.65;;
215;SDS011;64590;48.81286795;9.14184224;2023-02-22T00:39:50;26.23;;;9.70;;
215;SDS011;64590;48.81286795;9.14184224;2023-02-22T00:42:17;20.20;;;9.30;;
215;SDS011;64590;48.81286795;9.14184224;2023-02-22T00:44:45;21.20;;;9.70;;
215;SDS011;64590;48.81286795;9.14184224;2023-02-22T00:47:12;29.05;;;9.60;;
215;SDS011;64590;48.81286795;9.14184224;2023-02-22T00:49:39;19.50;;;9.88;;
215;SDS011;64590;48.81286795;9.14184224;2023-02-22T00:52:07;23.73;;;9.63;;
215;SDS011;64590;48.81286795;9.14184224;2023-02-22T00:54:34;18.25;;;9.50;;
215;SDS011;64590;48.81286795;9.14184224;2023-02-22T00:57:01;18.80;;;8.80;;
215;SDS011;64590;48.81286795;9.14184224;2023-02-22T00:59:28;19.37;;;9.43;;
215;SDS011;64590;48.81286795;9.14184224;2023-02-22T01:01:56;19.45;;;9.48;;
215;SDS011;64590;48.81286795;9.14184224;2023-02-22T01:04:23;22.33;;;9.73;;
215;SDS011;64590;48.81286795;9.14184224;2023-02-22T01:06:50;19.95;;;8.82;;
215;SDS011;64590;48.81286795;9.14184224;2023-02-22T01:09:18;21.77;;;9.45;;
215;SDS011;64590;48.81286795;9.14184224;2023-02-22T01:11:45;19.60;;;8.73;;
215;SDS011;64590;48.81286795;9.14184224;2023-02-22T01:14:12;19.17;;;9.02;;
215;SDS011;64590;48.81286795;9.14184224;2023-02-22T01:16:40;21.92;;;9.30;;
215;SDS011;64590;48.81286795;9.14184224;2023-02-22T01:19:08;17.60;;;8.80;;
215;SDS011;64590;48.81286795;9.14184224;2023-02-22T01:21:36;21.07;;;9.20;;
215;SDS011;64590;48.81286795;9.14184224;2023-02-22T01:24:05;18.70;;;9.10;;
215;SDS011;64590;48.81286795;9.14184224;2023-02-22T01:26:32;26.80;;;9.73;;
215;SDS011;64590;48.81286795;9.14184224;2023-02-22T01:28:58;17.85;;;8.75;;
215;SDS011;64590;48.81286795;9.14184224;2023-02-22T01:31:25;20.33;;;9.43;;
215;SDS011;64590;48.81286795;9.14184224;2023-02-22T01:33:52;21.00;;;9.00;;
215;SDS011;64590;48.81286795;9.14184224;2023-02-22T01:36:20;21.35;;;9.30;;
215;SDS011;64590;48.81286795;9.14184224;2023-02-22T01:38:46;20.30;;;9.10;;
215;SDS011;64590;48.81286795;9.14184224;2023-02-22T01:41:13;24.40;;;8.80;;
215;SDS011;64590;48.81286795;9.14184224;2023-02-22T01:43:42;22.25;;;8.80;;
215;SDS011;64590;48.81286795;9.14184224;2023-02-22T01:46:18;23.17;;;9.43;;
215;SDS011;64590;48.81286795;9.14184224;2023-02-22T01:48:47;20.70;;;9.63;;
215;SDS011;64590;48.81286795;9.14184224;2023-02-22T01:51:17;19.23;;;9.83;;
215;SDS011;64590;48.81286795;9.14184224;2023-02-22T01:53:49;18.50;;;9.70;;
215;SDS011;64590;48.81286795;9.14184224;2023-02-22T01:56:18;19.73;;;9.25;;
215;SDS011;64590;48.81286795;9.14184224;2023-02-22T01:58:47;18.63;;;8.05;;
215;SDS011;64590;48.81286795;9.14184224;2023-02-22T02:01:20;17.13;;;8.45;;
215;SDS011;64590;48.81286795;9.14184224;2023-02-22T02:03:48;16.05;;;8.32;;
215;SDS011;64590;48.81286795;9.14184224;2023-02-22T02:06:17;21.52;;;8.63;;
215;SDS011;64590;48.81286795;9.14184224;2023-02-22T02:08:47;21.77;;;8.50;;
215;SDS011;64590;48.81286795;9.14184224;2023-02-22T02:11:20;18.67;;;8.67;;
215;SDS011;64590;48.81286795;9.14184224;2023-02-22T02:13:50;17.57;;;8.77;;
215;SDS011;64590;48.81286795;9.14184224;2023-02-22T02:16:19;18.05;;;8.70;;
215;SDS011;64590;48.81286795;9.14184224;2023-02-22T02:18:46;18.97;;;8.90;;
215;SDS011;64590;48.81286795;9.14184224;2023-02-22T02:24:24;13.35;;;7.20;;
215;SDS011;64590;48.81286795;9.14184224;2023-02-22T02:27:10;20.40;;;7.83;;
215;SDS011;64590;48.81286795;9.14184224;2023-02-22T02:32:40;14.82;;;7.97;;
215;SDS011;64590;48.81286795;9.14184224;2023-02-22T02:35:14;17.42;;;8.23;;
215;SDS011;64590;48.81286795;9.14184224;2023-02-22T02:37:48;17.38;;;9.55;;
215;SDS011;64590;48.81286795;9.14184224;2023-02-22T02:40:22;16.83;;;8.73;;
215;SDS011;64590;48.81286795;9.14184224;2023-02-22T02:42:57;18.77;;;9.75;;
215;SDS011;64590;48.81286795;9.14184224;2023-02-22T02:45:27;20.35;;;10.02;;
215;SDS011;64590;48.81286795;9.14184224;2023-02-22T02:48:00;19.13;;;9.52;;
215;SDS011;64590;48.81286795;9.14184224;2023-02-22T02:50:30;22.87;;;12.47;;
215;SDS011;64590;48.81286795;9.14184224;2023-02-22T02:53:03;25.23;;;11.70;;
215;SDS011;64590;48.81286795;9.14184224;2023-02-22T02:55:32;21.08;;;11.65;;
215;SDS011;64590;48.81286795;9.14184224;2023-02-22T02:58:01;25.33;;;11.87;;
215;SDS011;64590;48.81286795;9.14184224;2023-02-22T03:00:30;26.05;;;12.57;;
215;SDS011;64590;48.81286795;9.14184224;2023-02-22T03:03:16;25.23;;;12.68;;
215;SDS011;64590;48.81286795;9.14184224;2023-02-22T03:06:03;24.33;;;12.77;;
215;SDS011;64590;48.81286795;9.14184224;2023-02-22T03:08:42;28.98;;;13.07;;
215;SDS011;64590;48.81286795;9.14184224;2023-02-22T03:11:12;26.27;;;13.73;;
215;SDS011;64590;48.81286795;9.14184224;2023-02-22T03:13:46;23.60;;;12.40;;
215;SDS011;64590;48.81286795;9.14184224;2023-02-22T03:16:20;21.83;;;11.00;;
215;SDS011;64590;48.81286795;9.14184224;2023-02-22T03:19:00;21.40;;;10.00;;
215;SDS011;64590;48.81286795;9.14184224;2023-02-22T03:21:36;19.65;;;10.90;;
215;SDS011;64590;48.81286795;9.14184224;2023-02-22T03:24:13;19.85;;;11.25;;
215;SDS011;64590;48.81286795;9.14184224;2023-02-22T03:26:45;22.30;;;11.45;;
215;SDS011;64590;48.81286795;9.14184224;2023-02-22T03:29:18;23.10;;;11.50;;
215;SDS011;64590;48.81286795;9.14184224;2023-02-22T03:31:50;24.50;;;11.90;;
215;SDS011;64590;48.81286795;9.14184224;2023-02-22T03:34:24;24.00;;;11.93;;
215;SDS011;64590;48.81286795;9.14184224;2023-02-22T03:36:55;20.35;;;11.60;;
215;SDS011;64590;48.81286795;9.14184224;2023-02-22T03:39:26;21.10;;;11.90;;
215;SDS011;64590;48.81286795;9.14184224;2023-02-22T03:41:56;22.17;;;11.45;;
215;SDS011;64590;48.81286795;9.14184224;2023-02-22T03:44:27;20.50;;;10.20;;
215;SDS011;64590;48.81286795;9.14184224;2023-02-22T03:46:58;25.65;;;10.27;;
215;SDS011;64590;48.81286795;9.14184224;2023-02-22T03:49:30;19.33;;;10.67;;
215;SDS011;64590;48.81286795;9.14184224;2023-02-22T03:52:03;19.88;;;10.15;;
215;SDS011;64590;48.81286795;9.14184224;2023-02-22T03:54:32;17.90;;;9.20;;
215;SDS011;64590;48.81286795;9.14184224;2023-02-22T03:57:03;19.05;;;9.02;;
215;SDS011;64590;48.81286795;9.14184224;2023-02-22T03:59:38;16.73;;;9.13;;
215;SDS011;64590;48.81286795;9.14184224;2023-02-22T04:02:05;15.80;;;8.50;;
215;SDS011;64590;48.81286795;9.14184224;2023-02-22T04:04:34;23.33;;;8.65;;
215;SDS011;64590;48.81286795;9.14184224;2023-02-22T04:07:01;20.50;;;8.60;;
215;SDS011;64590;48.81286795;9.14184224;2023-02-22T04:09:28;25.20;;;9.00;;
215;SDS011;64590;48.81286795;9.14184224;2023-02-22T04:11:55;16.33;;;8.82;;
215;SDS011;64590;48.81286795;9.14184224;2023-02-22T04:14:21;18.10;;;8.40;;
215;SDS011;64590;48.81286795;9.14184224;2023-02-22T04:16:48;19.48;;;9.38;;
215;SDS011;64590;48.81286795;9.14184224;2023-02-22T04:19:16;18.92;;;9.13;;
215;SDS011;64590;48.81286795;9.14184224;2023-02-22T04:21:44;16.77;;;9.43;;
215;SDS011;64590;48.81286795;9.14184224;2023-02-22T04:24:18;21.05;;;9.10;;
215;SDS011;64590;48.81286795;9.14184224;2023-02-22T04:26:44;19.60;;;9.20;;
215;SDS011;64590;48.81286795;9.14184224;2023-02-22T04:29:11;18.30;;;9.35;;
215;SDS011;64590;48.81286795;9.14184224;2023-02-22T04:31:39;18.75;;;9.38;;
215;SDS011;64590;48.81286795;9.14184224;2023-02-22T04:34:06;19.85;;;9.40;;
215;SDS011;64590;48.81286795;9.14184224;2023-02-22T04:36:36;18.85;;;9.73;;
215;SDS011;64590;48.81286795;9.14184224;2023-02-22T04:39:04;21.92;;;9.43;;
215;SDS011;64590;48.81286795;9.14184224;2023-02-22T04:41:30;19.92;;;9.45;;
215;SDS011;64590;48.81286795;9.14184224;2023-02-22T04:43:58;19.63;;;9.40;;
215;SDS011;64590;48.81286795;9.14184224;2023-02-22T04:46:26;18.30;;;9.30;;
215;SDS011;64590;48.81286795;9.14184224;2023-02-22T04:48:54;17.50;;;9.27;;
215;SDS011;64590;48.81286795;9.14184224;2023-02-22T04:51:24;19.20;;;10.00;;
215;SDS011;64590;48.81286795;9.14184224;2023-02-22T04:54:04;19.17;;;9.50;;
215;SDS011;64590;48.81286795;9.14184224;2023-02-22T04:56:33;25.80;;;9.20;;
215;SDS011;64590;48.81286795;9.14184224;2023-02-22T04:58:59;20.73;;;9.30;;
215;SDS011;64590;48.81286795;9.14184224;2023-02-22T05:01:29;19.17;;;9.30;;
215;SDS011;64590;48.81286795;9.14184224;2023-02-22T05:03:57;19.73;;;9.80;;
215;SDS011;64590;48.81286795;9.14184224;2023-02-22T05:06:24;17.50;;;9.43;;
215;SDS011;64590;48.81286795;9.14184224;2023-02-22T05:08:51;19.25;;;10.25;;
215;SDS011;64590;48.81286795;9.14184224;2023-02-22T05:11:19;22.52;;;10.15;;
215;SDS011;64590;48.81286795;9.14184224;2023-02-22T05:13:46;19.98;;;11.00;;
215;SDS011;64590;48.81286795;9.14184224;2023-02-22T05:16:12;24.48;;;11.00;;
215;SDS011;64590;48.81286795;9.14184224;2023-02-22T05:18:39;21.73;;;11.10;;
215;SDS011;64590;48.81286795;9.14184224;2023-02-22T05:21:05;23.63;;;11.43;;
215;SDS011;64590;48.81286795;9.14184224;2023-02-22T05:23:32;21.85;;;10.80;;
215;SDS011;64590;48.81286795;9.14184224;2023-02-22T05:25:59;28.60;;;11.77;;
215;SDS011;64590;48.81286795;9.14184224;2023-02-22T05:28:27;18.75;;;10.77;;
215;SDS011;64590;48.81286795;9.14184224;2023-02-22T05:30:53;23.10;;;11.50;;
215;SDS011;64590;48.81286795;9.14184224;2023-02-22T05:33:20;20.52;;;10.27;;
215;SDS011;64590;48.81286795;9.14184224;2023-02-22T05:35:47;19.90;;;10.30;;
215;SDS011;64590;48.81286795;9.14184224;2023-02-22T05:38:14;21.45;;;10.73;;
215;SDS011;64590;48.81286795;9.14184224;2023-02-22T05:40:41;20.92;;;10.80;;
215;SDS011;64590;48.81286795;9.14184224;2023-02-22T05:43:08;19.73;;;10.77;;
215;SDS011;64590;48.81286795;9.14184224;2023-02-22T05:45:36;22.52;;;10.60;;
215;SDS011;64590;48.81286795;9.14184224;2023-02-22T05:48:03;19.20;;;11.02;;
215;SDS011;64590;48.81286795;9.14184224;2023-02-22T05:50:30;25.98;;;11.40;;
215;SDS011;64590;48.81286795;9.14184224;2023-02-22T05:52:58;31.33;;;16.50;;
215;SDS011;64590;48.81286795;9.14184224;2023-02-22T05:55:24;31.20;;;16.98;;
215;SDS011;64590;48.81286795;9.14184224;2023-02-22T05:57:51;19.83;;;11.07;;
215;SDS011;64590;48.81286795;9.14184224;2023-02-22T06:00:19;20.17;;;10.85;;
215;SDS011;64590;48.81286795;9.14184224;2023-02-22T06:02:53;22.42;;;11.10;;
215;SDS011;64590;48.81286795;9.14184224;2023-02-22T06:05:20;23.02;;;11.35;;
215;SDS011;64590;48.81286795;9.14184224;2023-02-22T06:07:47;25.42;;;11.70;;
215;SDS011;64590;48.81286795;9.14184224;2023-02-22T06:10:14;21.15;;;10.65;;
215;SDS011;64590;48.81286795;9.14184224;2023-02-22T06:12:40;21.45;;;11.75;;
215;SDS011;64590;48.81286795;9.14184224;2023-02-22T06:15:08;25.02;;;11.40;;
215;SDS011;64590;48.81286795;9.14184224;2023-02-22T06:17:35;19.77;;;11.05;;
215;SDS011;64590;48.81286795;9.14184224;2023-02-22T06:20:05;18.73;;;10.35;;
215;SDS011;64590;48.81286795;9.14184224;2023-02-22T06:22:32;26.05;;;11.68;;
215;SDS011;64590;48.81286795;9.14184224;2023-02-22T06:25:00;22.35;;;11.27;;
215;SDS011;64590;48.81286795;9.14184224;2023-02-22T06:27:29;24.48;;;10.40;;
215;SDS011;64590;48.81286795;9.14184224;2023-02-22T06:29:56;21.52;;;10.40;;
215;SDS011;64590;48.81286795;9.14184224;2023-02-22T06:32:23;22.00;;;9.45;;
215;SDS011;64590;48.81286795;9.14184224;2023-02-22T06:34:49;17.65;;;9.90;;
215;SDS011;64590;48.81286795;9.14184224;2023-02-22T06:37:17;19.38;;;10.85;;
215;SDS011;64590;48.81286795;9.14184224;2023-02-22T06:39:44;20.58;;;10.20;;
215;SDS011;64590;48.81286795;9.14184224;2023-02-22T06:42:10;19.25;;;10.20;;
215;SDS011;64590;48.81286795;9.14184224;2023-02-22T06:44:37;25.80;;;10.35;;
215;SDS011;64590;48.81286795;9.14184224;2023-02-22T06:47:03;21.27;;;11.00;;
215;SDS011;64590;48.81286795;9.14184224;2023-02-22T06:49:30;20.35;;;10.45;;
215;SDS011;64590;48.81286795;9.14184224;2023-02-22T06:51:57;19.45;;;10.57;;
215;SDS011;64590;48.81286795;9.14184224;2023-02-22T06:54:25;26.13;;;10.00;;
215;SDS011;64590;48.81286795;9.14184224;2023-02-22T06:56:52;25.48;;;10.45;;
215;SDS011;64590;48.81286795;9.14184224;2023-02-22T06:59:18;19.98;;;10.60;;
215;SDS011;64590;48.81286795;9.14184224;2023-02-22T07:01:45;20.30;;;10.00;;
215;SDS011;64590;48.81286795;9.14184224;2023-02-22T07:04:12;22.35;;;11.40;;
215;SDS011;64590;48.81286795;9.14184224;2023-02-22T07:06:38;24.77;;;11.02;;
215;SDS011;64590;48.81286795;9.14184224;2023-02-22T07:09:09;22.25;;;11.20;;
215;SDS011;64590;48.81286795;9.14184224;2023-02-22T07:11:38;24.27;;;11.30;;
215;SDS011;64590;48.81286795;9.14184224;2023-02-22T07:14:05;27.77;;;11.05;;
215;SDS011;64590;48.81286795;9.14184224;2023-02-22T07:16:31;20.90;;;11.32;;
215;SDS011;64590;48.81286795;9.14184224;2023-02-22T07:18:58;23.30;;;10.70;;
215;SDS011;64590;48.81286795;9.14184224;2023-02-22T07:21:25;27.23;;;12.27;;
215;SDS011;64590;48.81286795;9.14184224;2023-02-22T07:23:53;23.45;;;12.40;;
215;SDS011;64590;48.81286795;9.14184224;2023-02-22T07:26:21;24.40;;;11.60;;
215;SDS011;64590;48.81286795;9.14184224;2023-02-22T07:28:50;20.48;;;11.43;;
215;SDS011;64590;48.81286795;9.14184224;2023-02-22T07:31:16;19.00;;;11.20;;
215;SDS011;64590;48.81286795;9.14184224;2023-02-22T07:33:44;25.80;;;12.37;;
215;SDS011;64590;48.81286795;9.14184224;2023-02-22T07:36:11;27.47;;;13.10;;
215;SDS011;64590;48.81286795;9.14184224;2023-02-22T07:38:41;33.20;;;13.53;;
215;SDS011;64590;48.81286795;9.14184224;2023-02-22T07:41:08;26.00;;;13.63;;
215;SDS011;64590;48.81286795;9.14184224;2023-02-22T07:43:34;30.47;;;13.00;;
215;SDS011;64590;48.81286795;9.14184224;2023-02-22T07:46:03;24.80;;;13.03;;
215;SDS011;64590;48.81286795;9.14184224;2023-02-22T07:48:30;28.20;;;12.93;;
215;SDS011;64590;48.81286795;9.14184224;2023-02-22T07:50:57;23.33;;;12.03;;
215;SDS011;64590;48.81286795;9.14184224;2023-02-22T07:53:25;25.65;;;12.73;;
215;SDS011;64590;48.81286795;9.14184224;2023-02-22T07:55:54;28.70;;;12.77;;
215;SDS011;64590;48.81286795;9.14184224;2023-02-22T07:58:22;24.43;;;12.17;;
215;SDS011;64590;48.81286795;9.14184224;2023-02-22T08:00:50;22.77;;;12.10;;
215;SDS011;64590;48.81286795;9.14184224;2023-02-22T08:03:19;22.60;;;11.90;;
215;SDS011;64590;48.81286795;9.14184224;2023-02-22T08:05:48;22.07;;;11.77;;
215;SDS011;64590;48.81286795;9.14184224;2023-02-22T08:08:16;24.93;;;11.70;;
215;SDS011;64590;48.81286795;9.14184224;2023-02-22T08:10:43;23.43;;;11.63;;
215;SDS011;64590;48.81286795;9.14184224;2023-02-22T08:13:10;23.13;;;11.93;;
215;SDS011;64590;48.81286795;9.14184224;2023-02-22T08:15:37;25.57;;;12.03;;
215;SDS011;64590;48.81286795;9.14184224;2023-02-22T08:18:05;21.57;;;11.90;;
215;SDS011;64590;48.81286795;9.14184224;2023-02-22T08:20:35;34.90;;;13.13;;
215;SDS011;64590;48.81286795;9.14184224;2023-02-22T08:23:03;26.10;;;12.57;;
215;SDS011;64590;48.81286795;9.14184224;2023-02-22T08:25:30;23.23;;;11.70;;
215;SDS011;64590;48.81286795;9.14184224;2023-02-22T08:27:58;23.43;;;11.73;;
215;SDS011;64590;48.81286795;9.14184224;2023-02-22T08:30:26;26.97;;;12.77;;
215;SDS011;64590;48.81286795;9.14184224;2023-02-22T08:32:53;27.67;;;12.83;;
215;SDS011;64590;48.81286795;9.14184224;2023-02-22T08:35:20;23.90;;;12.40;;
215;SDS011;64590;48.81286795;9.14184224;2023-02-22T08:37:49;27.03;;;12.73;;
215;SDS011;64590;48.81286795;9.14184224;2023-02-22T08:40:18;26.60;;;12.50;;
215;SDS011;64590;48.81286795;9.14184224;2023-02-22T08:42:45;25.20;;;13.20;;
215;SDS011;64590;48.81286795;9.14184224;2023-02-22T08:45:12;24.60;;;12.40;;
215;SDS011;64590;48.81286795;9.14184224;2023-02-22T08:47:39;24.33;;;12.83;;
215;SDS011;64590;48.81286795;9.14184224;2023-02-22T08:50:06;24.43;;;12.87;;
215;SDS011;64590;48.81286795;9.14184224;2023-02-22T08:52:34;24.03;;;12.97;;
215;SDS011;64590;48.81286795;9.14184224;2023-02-22T08:55:02;25.60;;;13.10;;
215;SDS011;64590;48.81286795;9.14184224;2023-02-22T08:57:28;26.23;;;12.57;;
215;SDS011;64590;48.81286795;9.14184224;2023-02-22T08:59:56;25.03;;;12.27;;
215;SDS011;64590;48.81286795;9.14184224;2023-02-22T09:02:22;23.77;;;12.33;;
215;SDS011;64590;48.81286795;9.14184224;2023-02-22T09:04:49;25.23;;;12.20;;
215;SDS011;64590;48.81286795;9.14184224;2023-02-22T09:07:16;24.10;;;11.40;;
215;SDS011;64590;48.81286795;9.14184224;2023-02-22T09:09:43;21.17;;;11.37;;
215;SDS011;64590;48.81286795;9.14184224;2023-02-22T09:12:12;22.23;;;10.53;;
215;SDS011;64590;48.81286795;9.14184224;2023-02-22T09:14:39;25.00;;;10.10;;
215;SDS011;64590;48.81286795;9.14184224;2023-02-22T09:17:07;20.93;;;10.00;;
215;SDS011;64590;48.81286795;9.14184224;2023-02-22T09:19:33;24.10;;;10.57;;
215;SDS011;64590;48.81286795;9.14184224;2023-02-22T09:22:00;24.97;;;11.30;;
215;SDS011;64590;48.81286795;9.14184224;2023-02-22T09:24:26;24.73;;;10.73;;
215;SDS011;64590;48.81286795;9.14184224;2023-02-22T09:26:53;20.33;;;10.90;;
215;SDS011;64590;48.81286795;9.14184224;2023-02-22T09:29:22;18.13;;;10.17;;
215;SDS011;64590;48.81286795;9.14184224;2023-02-22T09:31:52;23.47;;;11.10;;
215;SDS011;64590;48.81286795;9.14184224;2023-02-22T09:34:20;25.33;;;10.90;;
215;SDS011;64590;48.81286795;9.14184224;2023-02-22T09:36:54;21.97;;;10.80;;
215;SDS011;64590;48.81286795;9.14184224;2023-02-22T09:39:22;27.93;;;10.67;;
215;SDS011;64590;48.81286795;9.14184224;2023-02-22T09:41:50;20.17;;;10.80;;
215;SDS011;64590;48.81286795;9.14184224;2023-02-22T09:44:23;21.47;;;10.80;;
215;SDS011;64590;48.81286795;9.14184224;2023-02-22T09:47:00;22.90;;;10.80;;
215;SDS011;64590;48.81286795;9.14184224;2023-02-22T09:49:29;22.87;;;10.90;;
215;SDS011;64590;48.81286795;9.14184224;2023-02-22T09:52:02;18.13;;;10.60;;
215;SDS011;64590;48.81286795;9.14184224;2023-02-22T09:54:35;19.87;;;10.30;;
215;SDS011;64590;48.81286795;9.14184224;2023-02-22T09:57:08;21.43;;;10.33;;
215;SDS011;64590;48.81286795;9.14184224;2023-02-22T09:59:42;18.20;;;10.00;;
215;SDS011;64590;48.81286795;9.14184224;2023-02-22T10:02:20;16.47;;;9.47;;
215;SDS011;64590;48.81286795;9.14184224;2023-02-22T10:04:54;29.50;;;9.93;;
215;SDS011;64590;48.81286795;9.14184224;2023-02-22T10:07:27;19.47;;;9.80;;
215;SDS011;64590;48.81286795;9.14184224;2023-02-22T10:09:57;16.20;;;9.70;;
215;SDS011;64590;48.81286795;9.14184224;2023-02-22T10:12:32;17.17;;;9.37;;
215;SDS011;64590;48.81286795;9.14184224;2023-02-22T10:15:25;19.80;;;10.10;;
215;SDS011;64590;48.81286795;9.14184224;2023-02-22T10:18:03;17.40;;;9.57;;
215;SDS011;64590;48.81286795;9.14184224;2023-02-22T10:20:51;19.30;;;9.33;;
215;SDS011;64590;48.81286795;9.14184224;2023-02-22T10:23:23;23.43;;;10.47;;
215;SDS011;64590;48.81286795;9.14184224;2023-02-22T10:26:02;17.13;;;9.77;;
215;SDS011;64590;48.81286795;9.14184224;2023-02-22T10:28:39;20.07;;;9.57;;
215;SDS011;64590;48.81286795;9.14184224;2023-02-22T10:31:11;18.03;;;10.00;;
215;SDS011;64590;48.81286795;9.14184224;2023-02-22T10:33:47;20.37;;;10.33;;
215;SDS011;64590;48.81286795;9.14184224;2023-02-22T10:36:21;20.80;;;9.80;;
215;SDS011;64590;48.81286795;9.14184224;2023-02-22T10:38:50;20.53;;;10.17;;
215;SDS011;64590;48.81286795;9.14184224;2023-02-22T10:41:22;21.00;;;10.10;;
215;SDS011;64590;48.81286795;9.14184224;2023-02-22T10:43:52;16.47;;;10.03;;
215;SDS011;64590;48.81286795;9.14184224;2023-02-22T10:46:21;19.20;;;11.00;;
215;SDS011;64590;48.81286795;9.14184224;2023-02-22T10:48:51;18.70;;;10.20;;
215;SDS011;64590;48.81286795;9.14184224;2023-02-22T10:51:21;22.50;;;11.23;;
215;SDS011;64590;48.81286795;9.14184224;2023-02-22T10:53:52;24.17;;;12.77;;
215;SDS011;64590;48.81286795;9.14184224;2023-02-22T10:56:25;22.87;;;12.03;;
215;SDS011;64590;48.81286795;9.14184224;2023-02-22T10:58:53;25.17;;;12.67;;
215;SDS011;64590;48.81286795;9.14184224;2023-02-22T11:01:27;27.30;;;12.63;;
215;SDS011;64590;48.81286795;9.14184224;2023-02-22T11:04:02;23.57;;;12.83;;
215;SDS011;64590;48.81286795;9.14184224;2023-02-22T11:06:35;24.83;;;13.10;;
215;SDS011;64590;48.81286795;9.14184224;2023-02-22T11:09:06;25.03;;;11.90;;
215;SDS011;64590;48.81286795;9.14184224;2023-02-22T11:11:35;24.40;;;13.53;;
215;SDS011;64590;48.81286795;9.14184224;2023-02-22T11:14:04;23.43;;;12.83;;
215;SDS011;64590;48.81286795;9.14184224;2023-02-22T11:16:33;25.90;;;12.77;;
215;SDS011;64590;48.81286795;9.14184224;2023-02-22T11:19:04;20.27;;;12.53;;
215;SDS011;64590;48.81286795;9.14184224;2023-02-22T11:21:36;26.37;;;13.10;;
215;SDS011;64590;48.81286795;9.14184224;2023-02-22T11:24:05;24.47;;;13.87;;
215;SDS011;64590;48.81286795;9.14184224;2023-02-22T11:26:39;25.53;;;13.80;;
215;SDS011;64590;48.81286795;9.14184224;2023-02-22T11:29:12;23.43;;;13.40;;
215;SDS011;64590;48.81286795;9.14184224;2023-02-22T11:31:46;25.57;;;13.17;;
215;SDS011;64590;48.81286795;9.14184224;2023-02-22T11:34:24;24.70;;;13.80;;
215;SDS011;64590;48.81286795;9.14184224;2023-02-22T11:36:53;31.53;;;13.70;;
215;SDS011;64590;48.81286795;9.14184224;2023-02-22T11:39:21;26.20;;;14.70;;
215;SDS011;64590;48.81286795;9.14184224;2023-02-22T11:41:49;31.17;;;15.83;;
215;SDS011;64590;48.81286795;9.14184224;2023-02-22T11:44:21;28.60;;;15.07;;
215;SDS011;64590;48.81286795;9.14184224;2023-02-22T11:46:51;37.13;;;15.47;;
215;SDS011;64590;48.81286795;9.14184224;2023-02-22T11:49:20;26.23;;;15.10;;
215;SDS011;64590;48.81286795;9.14184224;2023-02-22T11:51:52;26.33;;;14.53;;
215;SDS011;64590;48.81286795;9.14184224;2023-02-22T11:54:46;25.50;;;14.77;;
215;SDS011;64590;48.81286795;9.14184224;2023-02-22T12:00:42;27.40;;;14.77;;
215;SDS011;64590;48.81286795;9.14184224;2023-02-22T12:03:33;24.70;;;14.00;;
215;SDS011;64590;48.81286795;9.14184224;2023-02-22T12:06:15;29.60;;;15.43;;
215;SDS011;64590;48.81286795;9.14184224;2023-02-22T12:08:53;28.93;;;14.47;;
215;SDS011;64590;48.81286795;9.14184224;2023-02-22T12:11:30;26.20;;;14.53;;
215;SDS011;64590;48.81286795;9.14184224;2023-02-22T12:14:08;30.77;;;15.40;;
215;SDS011;64590;48.81286795;9.14184224;2023-02-22T12:16:48;29.60;;;15.13;;
215;SDS011;64590;48.81286795;9.14184224;2023-02-22T12:19:34;25.77;;;14.90;;
215;SDS011;64590;48.81286795;9.14184224;2023-02-22T12:22:06;26.07;;;14.80;;
215;SDS011;64590;48.81286795;9.14184224;2023-02-22T12:24:38;26.40;;;15.37;;
215;SDS011;64590;48.81286795;9.14184224;2023-02-22T12:27:12;29.50;;;16.00;;
215;SDS011;64590;48.81286795;9.14184224;2023-02-22T12:29:43;28.67;;;15.27;;
215;SDS011;64590;48.81286795;9.14184224;2023-02-22T12:32:13;26.40;;;15.30;;
215;SDS011;64590;48.81286795;9.14184224;2023-02-22T12:34:45;25.73;;;15.33;;
215;SDS011;64590;48.81286795;9.14184224;2023-02-22T12:37:19;24.87;;;14.53;;
215;SDS011;64590;48.81286795;9.14184224;2023-02-22T12:39:51;26.90;;;15.13;;
215;SDS011;64590;48.81286795;9.14184224;2023-02-22T12:42:23;25.87;;;15.17;;
215;SDS011;64590;48.81286795;9.14184224;2023-02-22T12:44:57;28.70;;;14.90;;
215;SDS011;64590;48.81286795;9.14184224;2023-02-22T12:47:29;28.83;;;15.10;;
215;SDS011;64590;48.81286795;9.14184224;2023-02-22T12:50:05;24.63;;;14.50;;
215;SDS011;64590;48.81286795;9.14184224;2023-02-22T12:52:43;30.13;;;15.70;;
215;SDS011;64590;48.81286795;9.14184224;2023-02-22T12:55:15;25.13;;;15.13;;
215;SDS011;64590;48.81286795;9.14184224;2023-02-22T12:57:46;23.70;;;14.20;;
215;SDS011;64590;48.81286795;9.14184224;2023-02-22T13:00:17;24.40;;;14.30;;
215;SDS011;64590;48.81286795;9.14184224;2023-02-22T13:02:54;24.90;;;14.70;;
215;SDS011;64590;48.81286795;9.14184224;2023-02-22T13:05:25;25.70;;;15.17;;
215;SDS011;64590;48.81286795;9.14184224;2023-02-22T13:07:57;23.03;;;14.30;;
215;SDS011;64590;48.81286795;9.14184224;2023-02-22T13:10:38;23.47;;;14.90;;
215;SDS011;64590;48.81286795;9.14184224;2023-02-22T13:13:18;26.83;;;14.60;;
215;SDS011;64590;48.81286795;9.14184224;2023-02-22T13:15:51;22.40;;;14.67;;
215;SDS011;64590;48.81286795;9.14184224;2023-02-22T13:18:27;28.80;;;15.27;;